Myojin Maru No.25 — JL6201 — position and weather

sailwx.info

Track history (hours):
 
Tides and Currents Weather Stations Pressure Air Temp Water Temp Dewpoint Dewpoint Depression Visibility Wind Speed Wind Dir Waves Ship Positions

Myojin Maru No.25

Last reported at 2015-Aug-31 11:28 UTC. Time now 2015-Sep-01 22:24 UTC.
Position N 33°54' E 130°22'.

Length 88 m; draft 4.8 m.

Type: Tanker. MMSI: 431500272.

Date/timePositionNaut miles runAvg speedWind from/ knotsBaromVisibWave heightAir tempDewpointWater temp
2015-Aug-31 11:28N 33°54' E 130°22'1212.6
2015-Aug-31 10:33N 33°44' E 130°16'9 9.1
2015-Aug-31 09:32N 33°36' E 130°23'0 0.0
2015-Aug-31 08:32N 33°36' E 130°23'0 0.0
2015-Aug-31 07:33N 33°36' E 130°23'0 0.0
2015-Aug-31 06:33N 33°36' E 130°23'0 0.0
2015-Aug-31 05:32N 33°36' E 130°23'0 0.0
2015-Aug-31 04:32N 33°36' E 130°23'1 1.3
2015-Aug-31 03:33N 33°37' E 130°22'1 0.8
2015-Aug-31 02:32N 33°37' E 130°21'0 0.0
2015-Aug-31 01:33N 33°37' E 130°21'0 0.1
2015-Aug-31 00:32N 33°37' E 130°21'0 0.0
2015-Aug-30 23:32N 33°37' E 130°21'0 0.0
2015-Aug-30 22:32N 33°37' E 130°21'0 0.0
2015-Aug-30 21:32N 33°37' E 130°21'0 0.1
2015-Aug-30 20:33N 33°37' E 130°21'8 8.2
2015-Aug-30 19:33N 33°44' E 130°16'  
2015-Aug-27 11:31N 33°54' E 130°22'1313.4
2015-Aug-27 10:33N 33°42' E 130°16'8 4.1
2015-Aug-27 08:31N 33°36' E 130°23'0 0.0
2015-Aug-27 05:31N 33°36' E 130°23'0 0.0
2015-Aug-27 04:32N 33°36' E 130°23'2 2.0
2015-Aug-27 03:32N 33°38' E 130°21'1 0.6
2015-Aug-27 02:33N 33°37' E 130°20'0 0.0
2015-Aug-27 01:33N 33°38' E 130°20'0 0.0
2015-Aug-27 00:33N 33°38' E 130°20'0 0.0
2015-Aug-26 23:33N 33°38' E 130°20'0 0.0
2015-Aug-26 22:32N 33°38' E 130°20'0 0.1
2015-Aug-26 21:32N 33°38' E 130°20'0 0.0
2015-Aug-26 20:32N 33°38' E 130°20'0 0.0
2015-Aug-26 19:33N 33°38' E 130°20'5 4.9
2015-Aug-26 18:33N 33°40' E 130°16'1212.1
2015-Aug-26 17:32N 33°52' E 130°20'  
2015-Aug-24 04:28N 33°50' E 130°20'1111.7
2015-Aug-24 03:33N 33°39' E 130°17'6 1.8
2015-Aug-24 00:26N 33°36' E 130°23'0 0.0
2015-Aug-23 23:32N 33°36' E 130°23'2 2.1
2015-Aug-23 22:32N 33°38' E 130°21'1 0.4
2015-Aug-23 21:21N 33°38' E 130°20'0 0.0
2015-Aug-23 20:09N 33°38' E 130°20'0 0.0
2015-Aug-23 19:33N 33°38' E 130°20'0 0.0
2015-Aug-23 18:32N 33°38' E 130°20'0 0.1
2015-Aug-23 17:32N 33°38' E 130°20'0 0.0
2015-Aug-23 16:29N 33°38' E 130°20'0 0.0
2015-Aug-23 15:33N 33°38' E 130°20'0 0.0
2015-Aug-23 14:32N 33°38' E 130°20'5 5.5
2015-Aug-23 13:33N 33°41' E 130°16'1413.0
2015-Aug-23 12:27N 33°54' E 130°23'  
Track history (hours):
 
Tides and Currents Weather Stations Pressure Air Temp Water Temp Dewpoint Dewpoint Depression Visibility Wind Speed Wind Dir Waves Ship Positions

Myojin Maru No.25

Last reported at 2015-Aug-31 11:28 UTC. Time now 2015-Sep-01 22:24 UTC.
Position N 33°54' E 130°22'.

Length 88 m; draft 4.8 m.

Type: Tanker. MMSI: 431500272.

Date/timePositionNaut miles runAvg speedWind from/ knotsBaromVisibWave heightAir tempDewpointWater temp
2015-Aug-31 11:28N 33°54' E 130°22'1212.6
2015-Aug-31 10:33N 33°44' E 130°16'9 9.1
2015-Aug-31 09:32N 33°36' E 130°23'0 0.0
2015-Aug-31 08:32N 33°36' E 130°23'0 0.0
2015-Aug-31 07:33N 33°36' E 130°23'0 0.0
2015-Aug-31 06:33N 33°36' E 130°23'0 0.0
2015-Aug-31 05:32N 33°36' E 130°23'0 0.0
2015-Aug-31 04:32N 33°36' E 130°23'1 1.3
2015-Aug-31 03:33N 33°37' E 130°22'1 0.8
2015-Aug-31 02:32N 33°37' E 130°21'0 0.0
2015-Aug-31 01:33N 33°37' E 130°21'0 0.1
2015-Aug-31 00:32N 33°37' E 130°21'0 0.0
2015-Aug-30 23:32N 33°37' E 130°21'0 0.0
2015-Aug-30 22:32N 33°37' E 130°21'0 0.0
2015-Aug-30 21:32N 33°37' E 130°21'0 0.1
2015-Aug-30 20:33N 33°37' E 130°21'8 8.2
2015-Aug-30 19:33N 33°44' E 130°16'  
2015-Aug-27 11:31N 33°54' E 130°22'1313.4
2015-Aug-27 10:33N 33°42' E 130°16'8 4.1
2015-Aug-27 08:31N 33°36' E 130°23'0 0.0
2015-Aug-27 05:31N 33°36' E 130°23'0 0.0
2015-Aug-27 04:32N 33°36' E 130°23'2 2.0
2015-Aug-27 03:32N 33°38' E 130°21'1 0.6
2015-Aug-27 02:33N 33°37' E 130°20'0 0.0
2015-Aug-27 01:33N 33°38' E 130°20'0 0.0
2015-Aug-27 00:33N 33°38' E 130°20'0 0.0
2015-Aug-26 23:33N 33°38' E 130°20'0 0.0
2015-Aug-26 22:32N 33°38' E 130°20'0 0.1
2015-Aug-26 21:32N 33°38' E 130°20'0 0.0
2015-Aug-26 20:32N 33°38' E 130°20'0 0.0
2015-Aug-26 19:33N 33°38' E 130°20'5 4.9
2015-Aug-26 18:33N 33°40' E 130°16'1212.1
2015-Aug-26 17:32N 33°52' E 130°20'  
2015-Aug-24 04:28N 33°50' E 130°20'1111.7
2015-Aug-24 03:33N 33°39' E 130°17'6 1.8
2015-Aug-24 00:26N 33°36' E 130°23'0 0.0
2015-Aug-23 23:32N 33°36' E 130°23'2 2.1
2015-Aug-23 22:32N 33°38' E 130°21'1 0.4
2015-Aug-23 21:21N 33°38' E 130°20'0 0.0
2015-Aug-23 20:09N 33°38' E 130°20'0 0.0
2015-Aug-23 19:33N 33°38' E 130°20'0 0.0
2015-Aug-23 18:32N 33°38' E 130°20'0 0.1
2015-Aug-23 17:32N 33°38' E 130°20'0 0.0
2015-Aug-23 16:29N 33°38' E 130°20'0 0.0
2015-Aug-23 15:33N 33°38' E 130°20'0 0.0
2015-Aug-23 14:32N 33°38' E 130°20'5 5.5
2015-Aug-23 13:33N 33°41' E 130°16'1413.0
2015-Aug-23 12:27N 33°54' E 130°23'  

Dump ship's entire track history